Terminal Aerodrome Forecast
Issued by NWS

Home | Current Version | Previous Version | Text Only | Print | Product List | Glossary On
Versions: 1 2 3 4 5 6 7 8 9 10 11 12 13 14 15 16 17 18
000
FTUS45 KABQ 290200 AAA
TAFSAF
TAF AMD
KSAF 290231Z 2903/2924 16010KT P6SM VCSH SCT060 BKN090
      TEMPO 2903/2905 VRB15G23KT -SHRA BKN050
     FM290900 16010KT P6SM BKN030
     FM291500 25008KT P6SM VCSH SCT050 SCT110
     FM291900 26010KT P6SM VCTS SCT060CB BKN110
     FM292200 30011KT P6SM VCSH SCT070 SCT120=

USA.gov is the U.S. government's official web portal to all federal, state and local government web resources and services.